Time;durP1;ratioP1;P1;durP2;ratioP2;P2;SDS_P1;SDS_P2;PMS_P1;PMS_P2;Temp;Humidity;BMP_temperature;BMP_pressure;BME280_temperature;BME280_humidity;BME280_pressure;Samples;Min_cycle;Max_cycle;Signal;HPM_P1;HPM_P2
2021/04/22 00:01:27;;;;;;;39.30;24.43;;;8.20;99.90;;;;;;4752841;30;20183;-80
2021/04/22 00:03:53;;;;;;;38.67;24.67;;;8.20;99.90;;;;;;4752550;30;20585;-80
2021/04/22 00:06:19;;;;;;;34.23;22.97;;;8.20;99.90;;;;;;4752594;30;20199;-80
2021/04/22 00:08:45;;;;;;;38.40;23.70;;;8.20;99.90;;;;;;4751360;30;20234;-80
2021/04/22 00:11:11;;;;;;;36.23;23.50;;;8.20;99.90;;;;;;4752844;30;20645;-80
2021/04/22 00:13:37;;;;;;;40.03;24.33;;;8.20;99.90;;;;;;4751527;30;20201;-80
2021/04/22 00:16:02;;;;;;;37.83;23.53;;;8.20;99.90;;;;;;4752339;30;20194;-79
2021/04/22 00:18:29;;;;;;;40.30;24.17;;;8.30;99.90;;;;;;4755710;30;20190;-79
2021/04/22 00:20:55;;;;;;;36.60;24.37;;;8.30;99.90;;;;;;4769966;30;20533;-79
2021/04/22 00:23:22;;;;;;;33.63;23.23;;;8.30;99.90;;;;;;4756083;30;20253;-78
2021/04/22 00:25:48;;;;;;;37.60;24.60;;;8.40;99.90;;;;;;4769867;30;20243;-79
2021/04/22 00:28:15;;;;;;;36.37;23.97;;;8.40;99.90;;;;;;4755986;30;20278;-81
2021/04/22 00:30:43;;;;;;;37.47;23.47;;;8.40;99.90;;;;;;4756362;30;20179;-79
2021/04/22 00:33:16;;;;;;;42.37;24.30;;;8.40;99.90;;;;;;4756290;30;20187;-79
2021/04/22 00:35:43;;;;;;;37.20;23.87;;;8.40;99.90;;;;;;4756137;30;20193;-79
2021/04/22 00:38:10;;;;;;;39.33;24.13;;;8.50;99.90;;;;;;4755907;30;20192;-80
2021/04/22 00:40:39;;;;;;;37.87;26.13;;;8.50;99.90;;;;;;4756107;30;20201;-79
2021/04/22 00:43:08;;;;;;;41.70;25.07;;;8.50;99.90;;;;;;4754401;30;20214;-79
2021/04/22 00:45:37;;;;;;;35.63;24.23;;;8.50;99.90;;;;;;4755654;30;20555;-80
2021/04/22 00:48:04;;;;;;;39.27;25.10;;;8.50;99.90;;;;;;4755612;30;20248;-88
2021/04/22 00:50:33;;;;;;;36.20;24.80;;;8.60;99.90;;;;;;4755768;30;20187;-79
2021/04/22 00:53:00;;;;;;;36.37;23.03;;;8.60;99.90;;;;;;4755498;30;20214;-79
2021/04/22 00:55:28;;;;;;;37.70;24.10;;;8.60;99.90;;;;;;4755358;30;20183;-78
2021/04/22 00:57:54;;;;;;;37.27;23.93;;;8.70;99.90;;;;;;4755582;30;20187;-79
2021/04/22 01:00:32;;;;;;;37.20;24.67;;;8.70;99.90;;;;;;4769004;30;20190;-79
2021/04/22 01:02:58;;;;;;;40.23;25.03;;;8.70;99.90;;;;;;4768991;30;20222;-79
2021/04/22 01:05:35;;;;;;;41.87;24.77;;;8.70;99.90;;;;;;4755408;30;20194;-79
2021/04/22 01:08:01;;;;;;;36.53;24.63;;;8.70;99.90;;;;;;4769462;30;20194;-79
2021/04/22 01:10:27;;;;;;;39.97;24.43;;;8.70;99.90;;;;;;4755802;30;20724;-79
2021/04/22 01:12:53;;;;;;;34.57;23.97;;;8.70;99.90;;;;;;4755763;30;20199;-80
2021/04/22 01:15:27;;;;;;;34.00;20.80;;;8.70;99.90;;;;;;4755137;30;20273;-79
2021/04/22 01:17:53;;;;;;;41.53;23.70;;;8.70;99.90;;;;;;4755366;30;20277;-79
2021/04/22 01:20:22;;;;;;;38.77;23.73;;;8.70;99.90;;;;;;4755389;30;20191;-79
2021/04/22 01:22:48;;;;;;;32.93;23.17;;;8.70;99.90;;;;;;4755404;30;20214;-79
2021/04/22 01:25:18;;;;;;;40.47;23.90;;;8.70;99.90;;;;;;4754986;30;20191;-79
2021/04/22 01:27:45;;;;;;;41.37;24.60;;;8.70;99.90;;;;;;4755311;30;20202;-79
2021/04/22 01:30:15;;;;;;;37.47;24.07;;;8.70;99.90;;;;;;4755106;30;20203;-79
2021/04/22 01:32:41;;;;;;;38.30;24.90;;;8.70;99.90;;;;;;4768887;29;20557;-79
2021/04/22 01:35:12;;;;;;;40.70;23.93;;;8.70;99.90;;;;;;4755105;30;20191;-79
2021/04/22 01:37:38;;;;;;;40.23;24.83;;;8.70;99.90;;;;;;4755085;30;20191;-79
2021/04/22 01:40:06;;;;;;;37.27;24.30;;;8.70;99.90;;;;;;4754798;30;20222;-79
2021/04/22 01:42:32;;;;;;;38.10;23.60;;;8.80;99.90;;;;;;4756215;30;20218;-79
2021/04/22 01:44:58;;;;;;;37.27;23.50;;;8.80;99.90;;;;;;4754949;30;20178;-79
2021/04/22 01:47:23;;;;;;;45.37;26.27;;;8.80;99.90;;;;;;4753888;30;20349;-78
2021/04/22 01:49:49;;;;;;;34.37;23.23;;;8.80;99.90;;;;;;4754668;30;20191;-79
2021/04/22 01:52:15;;;;;;;40.83;25.37;;;8.70;99.90;;;;;;4754778;30;20195;-79
2021/04/22 01:54:41;;;;;;;37.30;24.80;;;8.70;99.90;;;;;;4754895;30;20550;-78
2021/04/22 01:57:07;;;;;;;46.00;26.50;;;8.70;99.90;;;;;;4754966;30;20281;-79
2021/04/22 01:59:33;;;;;;;40.53;25.00;;;8.70;99.90;;;;;;4754524;30;20190;-79
2021/04/22 02:01:59;;;;;;;41.57;25.40;;;8.60;99.90;;;;;;4754512;30;20218;-79
2021/04/22 02:04:24;;;;;;;37.27;25.07;;;8.70;99.90;;;;;;4754651;30;20205;-79
2021/04/22 02:06:50;;;;;;;39.27;24.80;;;8.60;99.90;;;;;;4754687;30;20226;-79
2021/04/22 02:09:16;;;;;;;36.53;19.57;;;8.60;99.90;;;;;;4753878;30;20728;-79
2021/04/22 02:11:42;;;;;;;43.80;26.03;;;8.60;99.90;;;;;;4754655;30;20194;-79
2021/04/22 02:14:07;;;;;;;44.57;25.93;;;8.60;99.90;;;;;;4754298;30;20252;-79
2021/04/22 02:16:33;;;;;;;43.10;26.53;;;8.60;99.90;;;;;;4754225;30;20625;-79
2021/04/22 02:18:59;;;;;;;46.33;27.20;;;8.50;99.90;;;;;;4754619;30;20214;-79
2021/04/22 02:21:24;;;;;;;44.23;26.67;;;8.50;99.90;;;;;;4753058;30;20218;-79
2021/04/22 02:23:50;;;;;;;44.27;26.90;;;8.40;99.90;;;;;;4754102;30;20225;-80
2021/04/22 02:26:16;;;;;;;41.60;26.67;;;8.40;99.90;;;;;;4754113;30;20605;-81
2021/04/22 02:28:41;;;;;;;45.77;27.13;;;8.40;99.90;;;;;;4754323;30;20190;-80
2021/04/22 02:31:07;;;;;;;43.83;27.27;;;8.40;99.90;;;;;;4754088;30;20206;-79
2021/04/22 02:33:33;;;;;;;46.83;27.10;;;8.30;99.90;;;;;;4753021;30;20198;-80
2021/04/22 02:35:58;;;;;;;45.27;27.53;;;8.30;99.90;;;;;;4752647;30;20186;-79
2021/04/22 02:38:24;;;;;;;45.17;27.37;;;8.30;99.90;;;;;;4753842;30;20191;-79
2021/04/22 02:40:50;;;;;;;41.43;27.17;;;8.30;99.90;;;;;;4754490;30;20519;-79
2021/04/22 02:43:18;;;;;;;41.57;26.93;;;8.30;99.90;;;;;;4752725;30;20228;-80
2021/04/22 02:45:50;;;;;;;43.13;26.13;;;8.20;99.90;;;;;;4752770;30;20193;-79
2021/04/22 02:48:16;;;;;;;42.00;27.13;;;8.20;99.90;;;;;;4753827;30;20258;-80
2021/04/22 02:50:46;;;;;;;48.47;28.00;;;8.20;99.90;;;;;;4753684;30;20344;-79
2021/04/22 02:53:11;;;;;;;45.00;27.20;;;8.10;99.90;;;;;;4753834;30;20187;-79
2021/04/22 02:55:38;;;;;;;45.87;28.43;;;8.00;99.90;;;;;;4753538;30;20191;-79
2021/04/22 02:58:04;;;;;;;47.43;28.27;;;8.10;99.90;;;;;;4753577;30;20259;-79
2021/04/22 03:00:30;;;;;;;47.47;29.83;;;8.00;99.90;;;;;;4753561;30;20630;-79
2021/04/22 03:02:55;;;;;;;46.73;29.10;;;8.00;99.90;;;;;;4753317;30;20268;-79
2021/04/22 03:05:21;;;;;;;54.40;30.30;;;7.90;99.90;;;;;;4753296;30;20213;-79
2021/04/22 03:07:47;;;;;;;47.47;29.27;;;7.90;99.90;;;;;;4753681;30;20197;-78
2021/04/22 03:10:16;;;;;;;49.43;29.83;;;7.90;99.90;;;;;;4753155;30;20257;-78
2021/04/22 03:12:42;;;;;;;49.50;29.57;;;7.90;99.90;;;;;;4753405;30;20201;-78
2021/04/22 03:15:09;;;;;;;53.13;30.13;;;7.80;99.90;;;;;;4753326;30;20194;-79
2021/04/22 03:17:35;;;;;;;50.27;28.17;;;7.80;99.90;;;;;;4752864;30;20252;-79
2021/04/22 03:20:01;;;;;;;48.00;29.13;;;7.80;99.90;;;;;;4753039;30;20183;-78
2021/04/22 03:22:27;;;;;;;52.13;28.47;;;7.70;99.90;;;;;;4752996;30;20233;-79
2021/04/22 03:24:52;;;;;;;50.20;29.63;;;7.80;99.90;;;;;;4753348;30;20195;-79
2021/04/22 03:27:18;;;;;;;46.80;28.90;;;7.70;99.90;;;;;;4752858;30;20269;-87
2021/04/22 03:29:44;;;;;;;53.47;28.93;;;7.70;99.90;;;;;;4753389;30;20196;-79
2021/04/22 03:32:10;;;;;;;49.73;28.63;;;7.80;99.90;;;;;;4751668;30;20277;-79
2021/04/22 03:34:36;;;;;;;43.13;28.27;;;7.70;99.90;;;;;;4751551;30;20660;-79
2021/04/22 03:37:02;;;;;;;47.77;29.73;;;7.80;99.90;;;;;;4753292;30;20596;-79
2021/04/22 03:39:27;;;;;;;48.87;29.43;;;7.80;99.90;;;;;;4752867;30;20197;-79
2021/04/22 03:41:53;;;;;;;50.10;30.57;;;7.80;99.90;;;;;;4751604;30;20715;-79
2021/04/22 03:44:19;;;;;;;47.03;30.23;;;7.80;99.90;;;;;;4751739;30;20195;-79
2021/04/22 03:46:45;;;;;;;56.00;33.27;;;7.80;99.90;;;;;;4752965;30;20266;-80
2021/04/22 03:49:10;;;;;;;49.00;30.77;;;7.90;99.90;;;;;;4752728;30;20194;-79
2021/04/22 03:51:36;;;;;;;49.50;28.33;;;7.90;99.90;;;;;;4751982;30;20265;-79
2021/04/22 03:54:02;;;;;;;56.27;30.30;;;7.90;99.90;;;;;;4771530;29;20232;-81
2021/04/22 03:56:28;;;;;;;50.17;28.40;;;8.00;99.90;;;;;;4761592;30;20679;-80
2021/04/22 03:58:54;;;;;;;47.17;28.97;;;8.00;99.90;;;;;;4758052;30;20284;-80
2021/04/22 04:01:20;;;;;;;47.30;27.57;;;8.10;99.90;;;;;;4754947;30;20645;-80
2021/04/22 04:03:46;;;;;;;50.70;28.27;;;8.20;99.90;;;;;;4756712;30;20234;-81
2021/04/22 04:06:11;;;;;;;45.77;27.33;;;8.20;99.90;;;;;;4767570;29;20191;-80
2021/04/22 04:08:37;;;;;;;44.53;27.17;;;8.20;99.90;;;;;;4764936;30;20247;-80
2021/04/22 04:11:03;;;;;;;47.47;27.80;;;8.30;99.90;;;;;;4769217;30;20189;-80
2021/04/22 04:13:28;;;;;;;39.37;25.43;;;8.30;99.90;;;;;;4758431;30;20198;-81
2021/04/22 04:15:54;;;;;;;43.13;27.80;;;8.30;99.90;;;;;;4758598;30;20698;-81
2021/04/22 04:18:21;;;;;;;51.83;36.10;;;8.40;99.90;;;;;;4776664;29;20247;-80
2021/04/22 04:20:47;;;;;;;51.10;29.70;;;8.40;99.90;;;;;;4790948;29;20701;-81
2021/04/22 04:23:13;;;;;;;44.50;26.43;;;8.40;99.90;;;;;;4762434;30;20633;-82
2021/04/22 04:25:39;;;;;;;42.93;26.53;;;8.30;99.90;;;;;;4764044;30;20201;-79
2021/04/22 04:28:05;;;;;;;42.53;26.87;;;8.40;99.90;;;;;;4763918;30;20199;-80
2021/04/22 04:30:31;;;;;;;46.80;26.93;;;8.40;99.90;;;;;;4766453;30;20650;-80
2021/04/22 04:32:57;;;;;;;39.93;27.10;;;8.50;99.90;;;;;;4759952;30;20196;-80
2021/04/22 04:35:23;;;;;;;50.27;28.67;;;8.50;99.90;;;;;;4759954;30;20190;-80
2021/04/22 04:37:49;;;;;;;47.83;28.53;;;8.60;99.90;;;;;;4783397;29;20557;-79
2021/04/22 04:40:15;;;;;;;46.00;26.63;;;8.70;99.90;;;;;;4782884;29;20190;-80
2021/04/22 04:42:42;;;;;;;44.73;25.93;;;8.80;99.90;;;;;;4773765;30;20226;-81
2021/04/22 04:45:10;;;;;;;46.43;25.70;;;8.80;99.90;;;;;;4759802;30;20213;-80
2021/04/22 04:47:36;;;;;;;43.83;25.17;;;8.90;99.90;;;;;;4763252;30;20216;-80
2021/04/22 04:50:06;;;;;;;41.93;25.97;;;8.90;99.90;;;;;;4765331;30;20301;-80
2021/04/22 04:52:33;;;;;;;43.27;25.63;;;8.90;99.90;;;;;;4770624;30;20251;-81
2021/04/22 04:54:58;;;;;;;39.77;24.27;;;9.00;99.90;;;;;;4763065;30;20205;-80
2021/04/22 04:57:26;;;;;;;46.37;24.93;;;9.00;99.90;;;;;;4760575;30;20198;-80
2021/04/22 04:59:52;;;;;;;42.40;24.27;;;9.00;99.90;;;;;;4760134;30;20191;-80
2021/04/22 05:02:18;;;;;;;37.83;22.93;;;9.10;99.90;;;;;;4757790;30;20241;-82
2021/04/22 05:04:44;;;;;;;31.57;18.77;;;9.10;99.90;;;;;;4766663;29;20189;-80
2021/04/22 05:07:10;;;;;;;31.63;17.73;;;9.20;99.90;;;;;;4757507;29;20221;-80
2021/04/22 05:09:36;;;;;;;24.13;16.23;;;9.20;99.90;;;;;;4764085;30;20268;-80
2021/04/22 05:12:01;;;;;;;32.60;21.37;;;9.30;99.90;;;;;;4760329;30;20210;-80
2021/04/22 05:14:27;;;;;;;24.90;15.57;;;9.30;99.90;;;;;;4761325;30;20268;-80
2021/04/22 05:16:53;;;;;;;22.70;12.93;;;9.40;99.90;;;;;;4774682;30;20198;-82
2021/04/22 05:19:18;;;;;;;17.33;11.23;;;9.50;99.90;;;;;;4756272;30;20277;-82
2021/04/22 05:21:44;;;;;;;29.23;18.30;;;9.60;99.90;;;;;;4762137;30;20206;-81
2021/04/22 05:24:10;;;;;;;27.17;16.50;;;9.70;99.90;;;;;;4778309;30;20197;-81
2021/04/22 05:26:36;;;;;;;28.80;17.23;;;9.60;99.90;;;;;;4778012;29;20190;-80
2021/04/22 05:29:02;;;;;;;28.07;16.13;;;9.50;99.90;;;;;;4775394;30;20553;-79
2021/04/22 05:31:27;;;;;;;24.57;16.13;;;9.40;99.90;;;;;;4769650;30;20228;-81
2021/04/22 05:33:53;;;;;;;22.67;14.90;;;9.40;99.90;;;;;;4770882;30;20198;-82
2021/04/22 05:36:19;;;;;;;18.17;12.93;;;9.40;99.90;;;;;;4770218;30;20198;-81
2021/04/22 05:38:45;;;;;;;17.00;11.13;;;9.50;99.90;;;;;;4771794;30;20644;-80
2021/04/22 05:41:10;;;;;;;20.53;10.83;;;9.60;99.90;;;;;;4771829;30;20695;-80
2021/04/22 05:43:36;;;;;;;18.33;11.77;;;9.60;99.90;;;;;;4771007;30;20711;-80
2021/04/22 05:46:02;;;;;;;24.03;15.30;;;9.60;99.90;;;;;;4772442;30;20217;-80
2021/04/22 05:48:28;;;;;;;30.20;18.37;;;9.70;99.90;;;;;;4772057;30;20194;-80
2021/04/22 05:50:54;;;;;;;30.00;19.87;;;9.60;99.90;;;;;;4772135;30;20197;-81
2021/04/22 05:53:21;;;;;;;35.83;19.83;;;9.60;99.90;;;;;;4772250;30;20209;-81
2021/04/22 05:55:47;;;;;;;31.43;20.73;;;9.60;99.90;;;;;;4771100;29;20225;-82
2021/04/22 05:58:13;;;;;;;29.40;19.13;;;9.70;99.90;;;;;;4772355;30;20216;-80
2021/04/22 06:00:39;;;;;;;30.77;20.73;;;9.80;99.90;;;;;;4772391;30;20186;-79
2021/04/22 06:03:05;;;;;;;29.03;18.10;;;10.00;99.90;;;;;;4771922;30;20251;-84
2021/04/22 06:05:31;;;;;;;33.43;18.90;;;10.30;99.90;;;;;;4772174;30;20640;-79
2021/04/22 06:07:58;;;;;;;23.93;15.13;;;10.30;99.90;;;;;;4765493;30;20195;-81
2021/04/22 06:10:24;;;;;;;20.67;13.40;;;10.40;99.90;;;;;;4754612;30;20238;-80
2021/04/22 06:12:51;;;;;;;23.80;13.60;;;10.50;99.90;;;;;;4754327;30;20212;-80
2021/04/22 06:15:18;;;;;;;21.13;12.67;;;10.60;99.90;;;;;;4775314;29;20209;-79
2021/04/22 06:17:43;;;;;;;19.27;12.03;;;10.60;99.90;;;;;;4754537;30;20195;-83
2021/04/22 06:20:15;;;;;;;31.63;16.30;;;10.60;99.90;;;;;;4754556;30;20275;-80
2021/04/22 06:22:41;;;;;;;26.70;15.60;;;10.80;99.90;;;;;;4754228;30;20236;-80
2021/04/22 06:25:08;;;;;;;19.93;13.20;;;10.80;99.90;;;;;;4753464;30;20618;-80
2021/04/22 06:27:33;;;;;;;17.77;12.00;;;11.00;99.90;;;;;;4754444;30;20190;-80
2021/04/22 06:30:00;;;;;;;15.77;11.67;;;11.10;99.90;;;;;;4754188;30;20544;-80
2021/04/22 06:32:26;;;;;;;21.77;12.23;;;11.10;99.90;;;;;;4753414;30;20199;-81
2021/04/22 06:34:51;;;;;;;19.47;13.43;;;11.10;99.90;;;;;;4754150;30;20565;-79
2021/04/22 06:37:18;;;;;;;18.27;10.67;;;11.20;99.90;;;;;;4754046;30;20248;-81
2021/04/22 06:39:44;;;;;;;15.73;10.93;;;11.30;99.90;;;;;;4753982;30;20186;-81
2021/04/22 06:42:09;;;;;;;17.97;12.07;;;11.40;99.90;;;;;;4754485;30;20542;-81
2021/04/22 06:44:36;;;;;;;16.17;11.33;;;11.30;99.90;;;;;;4758934;30;20221;-80
2021/04/22 06:47:03;;;;;;;18.60;11.20;;;11.10;99.90;;;;;;4769612;30;20222;-80
2021/04/22 06:49:29;;;;;;;19.63;13.20;;;11.00;99.90;;;;;;4768255;30;20193;-81
2021/04/22 06:51:55;;;;;;;24.43;14.20;;;11.10;99.90;;;;;;4758401;30;20206;-80
2021/04/22 06:54:21;;;;;;;20.70;13.37;;;11.30;99.90;;;;;;4779045;29;20237;-80
2021/04/22 06:56:48;;;;;;;21.47;13.57;;;11.40;99.90;;;;;;4771043;30;20190;-80
2021/04/22 06:59:14;;;;;;;23.10;14.65;;;11.30;99.90;;;;;;4755614;30;20194;-79
2021/04/22 07:01:40;;;;;;;21.50;14.50;;;11.20;99.90;;;;;;4767859;30;20186;-79
2021/04/22 07:04:06;;;;;;;23.87;14.83;;;11.20;99.90;;;;;;4763614;30;20229;-80
2021/04/22 07:06:31;;;;;;;27.23;16.07;;;11.30;99.90;;;;;;4760601;30;20271;-81
2021/04/22 07:08:57;;;;;;;36.10;25.77;;;11.20;99.90;;;;;;4759475;30;20704;-82
2021/04/22 07:11:23;;;;;;;42.67;27.90;;;11.30;99.90;;;;;;4770996;30;20189;-83
2021/04/22 07:13:49;;;;;;;33.67;26.30;;;11.40;99.90;;;;;;4767690;29;20189;-81
2021/04/22 07:16:15;;;;;;;37.40;23.57;;;11.60;99.90;;;;;;4771552;30;20272;-81
2021/04/22 07:18:41;;;;;;;37.17;25.95;;;11.70;99.90;;;;;;4754820;30;20198;-81
2021/04/22 07:21:07;;;;;;;38.63;29.17;;;11.50;99.90;;;;;;4759470;30;20198;-81
2021/04/22 07:23:33;;;;;;;26.50;18.87;;;11.50;99.90;;;;;;4753346;30;20231;-81
2021/04/22 07:25:58;;;;;;;27.67;17.33;;;11.40;99.90;;;;;;4752487;30;20190;-81
2021/04/22 07:28:24;;;;;;;27.97;17.07;;;11.30;99.90;;;;;;4750808;30;20633;-81
2021/04/22 07:30:51;;;;;;;26.70;17.20;;;11.30;99.90;;;;;;4752631;30;20187;-82
2021/04/22 07:33:17;;;;;;;31.90;18.87;;;11.30;99.90;;;;;;4751399;30;20202;-81
2021/04/22 07:35:43;;;;;;;31.67;20.03;;;11.20;99.90;;;;;;4752154;30;20210;-86
2021/04/22 07:38:11;;;;;;;27.50;18.53;;;11.20;99.90;;;;;;4752158;30;20629;-81
2021/04/22 07:40:38;;;;;;;29.07;18.60;;;10.90;99.90;;;;;;4752596;30;20645;-82
2021/04/22 07:43:04;;;;;;;34.90;21.63;;;10.60;99.90;;;;;;4751274;30;20226;-80
2021/04/22 07:45:34;;;;;;;30.57;17.70;;;10.40;99.90;;;;;;4752469;30;20230;-80
2021/04/22 07:48:01;;;;;;;31.03;18.47;;;10.30;99.90;;;;;;4765651;30;20202;-81
2021/04/22 07:50:26;;;;;;;35.33;22.77;;;10.20;99.90;;;;;;4752650;30;20186;-80
2021/04/22 07:52:53;;;;;;;37.80;23.87;;;10.20;99.90;;;;;;4752568;30;20706;-80
2021/04/22 07:55:26;;;;;;;35.57;24.00;;;10.20;99.90;;;;;;4752864;30;20213;-80
2021/04/22 07:57:51;;;;;;;37.67;23.13;;;10.20;99.90;;;;;;4752388;30;20647;-81
2021/04/22 08:00:19;;;;;;;31.17;20.10;;;10.30;99.90;;;;;;4751491;30;20285;-80
2021/04/22 08:02:46;;;;;;;38.37;22.67;;;10.30;99.90;;;;;;4752843;30;20246;-80
2021/04/22 08:05:13;;;;;;;37.00;23.03;;;10.40;99.90;;;;;;4753210;30;20676;-81
2021/04/22 08:07:38;;;;;;;28.90;20.27;;;10.40;99.90;;;;;;4752349;30;20676;-82
2021/04/22 08:10:16;;;;;;;36.37;22.30;;;10.50;99.90;;;;;;4752203;30;20266;-80
2021/04/22 08:12:43;;;;;;;31.80;20.70;;;10.40;99.90;;;;;;4766231;30;20197;-80
2021/04/22 08:15:10;;;;;;;30.63;18.80;;;10.20;99.90;;;;;;4752361;30;20197;-80
2021/04/22 08:17:40;;;;;;;34.50;18.90;;;10.20;99.90;;;;;;4751187;30;20197;-80
2021/04/22 08:20:09;;;;;;;32.27;17.83;;;10.20;99.90;;;;;;4752077;30;20667;-80
2021/04/22 08:22:36;;;;;;;30.10;19.60;;;10.10;99.90;;;;;;4752010;30;20230;-81
2021/04/22 08:25:08;;;;;;;28.80;19.90;;;10.20;99.90;;;;;;4750943;30;20273;-83
2021/04/22 08:27:34;;;;;;;29.77;17.90;;;10.20;99.90;;;;;;4765696;30;20194;-80
2021/04/22 08:30:00;;;;;;;28.80;17.63;;;10.20;99.90;;;;;;4750896;30;20191;-80
2021/04/22 08:32:26;;;;;;;27.07;18.00;;;10.00;99.90;;;;;;4751129;30;20205;-82
2021/04/22 08:34:52;;;;;;;27.03;16.97;;;9.80;99.90;;;;;;4752052;30;20191;-81
2021/04/22 08:37:18;;;;;;;23.70;16.20;;;9.70;99.90;;;;;;4751039;30;20202;-80
2021/04/22 08:39:44;;;;;;;26.33;14.80;;;9.50;99.90;;;;;;4768676;30;20189;-81
2021/04/22 08:42:10;;;;;;;23.43;14.47;;;9.40;99.90;;;;;;4762288;30;20226;-80
2021/04/22 08:44:36;;;;;;;23.57;12.23;;;9.30;99.90;;;;;;4773488;30;20244;-79
2021/04/22 08:47:02;;;;;;;22.00;12.83;;;9.30;99.90;;;;;;4771930;30;20190;-79
2021/04/22 08:49:28;;;;;;;20.07;12.90;;;9.20;99.90;;;;;;4773885;30;20194;-80
2021/04/22 08:51:56;;;;;;;19.37;13.47;;;9.10;99.90;;;;;;4773300;30;20186;-79
2021/04/22 08:54:22;;;;;;;19.23;13.03;;;9.00;99.90;;;;;;4763639;30;20190;-80
2021/04/22 08:56:48;;;;;;;23.70;13.97;;;9.00;99.90;;;;;;4754542;30;20270;-79
2021/04/22 08:59:15;;;;;;;19.93;12.20;;;9.00;99.90;;;;;;4761656;30;20304;-81
2021/04/22 09:01:41;;;;;;;16.07;11.30;;;8.70;99.90;;;;;;4766719;30;20190;-80
2021/04/22 09:04:07;;;;;;;21.73;12.10;;;8.40;99.90;;;;;;4761197;30;20218;-81
2021/04/22 09:06:36;;;;;;;18.43;10.77;;;8.10;99.90;;;;;;4761169;30;20278;-82
2021/04/22 09:09:06;;;;;;;12.03;7.67;;;8.00;99.90;;;;;;4754833;30;20243;-82
2021/04/22 09:11:43;;;;;;;12.80;7.80;;;7.50;99.90;;;;;;4754569;30;20190;-80
2021/04/22 09:14:18;;;;;;;8.17;6.33;;;7.10;99.90;;;;;;4767930;30;20633;-80
2021/04/22 09:16:44;;;;;;;9.87;7.00;;;6.90;99.90;;;;;;4755547;30;20174;-79
2021/04/22 09:19:13;;;;;;;8.23;6.47;;;7.10;99.90;;;;;;4754771;30;20191;-79
2021/04/22 09:21:43;;;;;;;9.50;6.47;;;7.00;99.90;;;;;;4757413;30;20228;-80
2021/04/22 09:24:12;;;;;;;7.27;5.73;;;7.20;99.90;;;;;;4762978;30;20222;-82
2021/04/22 09:26:42;;;;;;;7.23;5.67;;;7.20;99.90;;;;;;4771001;30;20189;-80
2021/04/22 09:29:11;;;;;;;8.97;5.87;;;7.20;99.90;;;;;;4772775;30;20217;-80
2021/04/22 09:31:38;;;;;;;8.83;6.10;;;7.10;99.90;;;;;;4771485;29;20195;-80
2021/04/22 09:34:10;;;;;;;9.60;6.37;;;7.00;99.90;;;;;;4764970;30;20202;-80
2021/04/22 09:36:42;;;;;;;13.03;7.07;;;7.10;99.90;;;;;;4767678;30;20239;-80
2021/04/22 09:39:09;;;;;;;11.70;6.63;;;6.90;99.90;;;;;;4769873;30;20193;-80
2021/04/22 09:41:34;;;;;;;7.70;5.37;;;6.70;99.90;;;;;;4771988;30;20194;-82
2021/04/22 09:44:07;;;;;;;8.63;6.10;;;6.60;99.90;;;;;;4772018;30;20244;-80
2021/04/22 09:46:34;;;;;;;8.17;6.53;;;6.10;99.90;;;;;;4785873;29;20544;-78
2021/04/22 09:49:08;;;;;;;8.43;6.07;;;5.90;99.90;;;;;;4771838;30;20286;-79
2021/04/22 09:51:34;;;;;;;17.90;9.13;;;5.70;99.90;;;;;;4771893;30;20270;-79
2021/04/22 09:54:11;;;;;;;11.77;7.43;;;5.60;99.90;;;;;;4770421;30;20209;-82
2021/04/22 09:56:45;;;;;;;13.97;8.23;;;5.60;99.90;;;;;;4771522;30;20185;-80
2021/04/22 09:59:17;;;;;;;17.30;9.13;;;5.70;99.90;;;;;;4772400;30;20184;-80
2021/04/22 10:01:57;;;;;;;17.33;9.70;;;5.70;99.90;;;;;;4772099;30;20195;-80
2021/04/22 10:04:56;;;;;;;14.80;9.20;;;5.70;99.90;;;;;;4771901;30;20209;-80
2021/04/22 10:07:31;;;;;;;12.60;9.43;;;5.80;99.90;;;;;;4769908;29;20209;-80
2021/04/22 10:09:58;;;;;;;14.47;7.90;;;5.70;99.90;;;;;;4771426;30;20244;-79
2021/04/22 10:12:27;;;;;;;15.10;8.90;;;5.80;99.90;;;;;;4761619;29;20318;-80
2021/04/22 10:14:54;;;;;;;9.53;6.80;;;6.00;99.90;;;;;;4769096;30;20186;-81
2021/04/22 10:17:25;;;;;;;14.60;6.80;;;5.90;99.90;;;;;;4728742;30;20558;-81
2021/04/22 10:20:03;;;;;;;15.73;6.40;;;5.70;99.90;;;;;;4763226;30;20278;-80
2021/04/22 10:22:35;;;;;;;18.70;8.77;;;5.80;99.90;;;;;;4761437;30;20214;-80
2021/04/22 10:25:07;;;;;;;12.53;7.83;;;6.00;99.90;;;;;;4763992;30;20197;-81
2021/04/22 10:27:33;;;;;;;14.77;7.60;;;6.10;99.90;;;;;;4760867;30;20214;-81
2021/04/22 10:30:00;;;;;;;12.23;7.33;;;6.30;99.90;;;;;;4759213;30;20195;-79
2021/04/22 10:32:26;;;;;;;12.63;6.23;;;6.20;99.90;;;;;;4760912;30;20648;-79
2021/04/22 10:34:53;;;;;;;13.13;5.77;;;6.50;99.90;;;;;;4753773;30;20256;-80
2021/04/22 10:37:20;;;;;;;8.47;5.17;;;6.50;99.90;;;;;;4754379;30;20195;-80
2021/04/22 10:39:46;;;;;;;15.73;4.77;;;6.50;99.90;;;;;;4758787;30;20221;-80
2021/04/22 10:42:13;;;;;;;12.77;4.20;;;6.50;99.90;;;;;;4774432;30;20736;-79
2021/04/22 10:44:40;;;;;;;15.47;5.17;;;6.60;99.90;;;;;;4760681;30;20281;-80
2021/04/22 10:47:06;;;;;;;18.30;6.00;;;6.70;99.90;;;;;;4763602;30;20193;-80
2021/04/22 10:49:32;;;;;;;12.77;4.80;;;6.90;99.90;;;;;;4764803;30;20207;-79
2021/04/22 10:52:00;;;;;;;13.90;6.17;;;7.00;99.90;;;;;;4761745;30;20193;-80
2021/04/22 10:54:26;;;;;;;15.07;6.03;;;7.30;99.90;;;;;;4761586;30;20190;-82
2021/04/22 10:57:07;;;;;;;12.50;5.27;;;7.60;99.90;;;;;;4761226;30;20195;-81
2021/04/22 10:59:34;;;;;;;13.13;6.07;;;7.70;99.90;;;;;;4762846;30;20182;-81
2021/04/22 11:02:20;;;;;;;16.17;7.40;;;7.80;99.90;;;;;;4773294;29;20197;-79
2021/04/22 11:04:48;;;;;;;18.93;7.77;;;7.80;99.90;;;;;;4764564;30;20599;-80
2021/04/22 11:07:23;;;;;;;15.73;6.80;;;7.90;99.90;;;;;;4761763;30;20247;-80
2021/04/22 11:09:52;;;;;;;24.80;12.20;;;7.90;99.90;;;;;;4761340;30;20266;-79
2021/04/22 11:12:29;;;;;;;16.53;7.80;;;8.00;99.90;;;;;;4761233;30;20273;-80
2021/04/22 11:14:56;;;;;;;12.37;5.83;;;8.00;99.90;;;;;;4762066;30;20186;-80
2021/04/22 11:17:39;;;;;;;13.73;6.90;;;8.20;99.90;;;;;;4762679;30;20272;-81
2021/04/22 11:20:21;;;;;;;17.33;6.83;;;8.70;99.90;;;;;;4763248;30;20205;-80
2021/04/22 11:22:47;;;;;;;12.07;5.93;;;9.10;99.90;;;;;;4762510;30;20213;-81
2021/04/22 11:25:21;;;;;;;12.60;6.80;;;9.00;99.90;;;;;;4758974;30;20185;-82
2021/04/22 11:27:54;;;;;;;15.33;5.93;;;9.10;99.90;;;;;;4764670;30;20193;-81
2021/04/22 11:30:28;;;;;;;13.53;5.90;;;9.10;99.90;;;;;;4764592;30;20186;-80
2021/04/22 11:32:56;;;;;;;14.60;5.10;;;9.20;99.90;;;;;;4761427;30;20221;-80
2021/04/22 11:35:24;;;;;;;8.57;3.93;;;9.00;99.90;;;;;;4762000;30;20656;-81
2021/04/22 11:38:08;;;;;;;12.83;7.83;;;9.10;99.90;;;;;;4761127;30;20186;-81
2021/04/22 11:40:54;;;;;;;13.43;7.60;;;9.10;99.90;;;;;;4765195;30;20239;-80
2021/04/22 11:43:25;;;;;;;9.23;4.40;;;9.20;99.90;;;;;;4759808;30;20233;-81
2021/04/22 11:45:53;;;;;;;8.93;5.67;;;9.20;99.90;;;;;;4762146;30;20189;-79
2021/04/22 11:48:21;;;;;;;11.60;5.40;;;9.40;99.90;;;;;;4759719;30;20535;-82
2021/04/22 11:50:48;;;;;;;15.93;8.03;;;9.60;99.90;;;;;;4764713;30;20194;-81
2021/04/22 11:53:15;;;;;;;16.83;6.30;;;9.60;99.90;;;;;;4761258;30;20645;-81
2021/04/22 11:55:46;;;;;;;15.13;7.37;;;10.00;99.90;;;;;;4760125;30;20191;-81
2021/04/22 11:58:17;;;;;;;15.03;8.77;;;10.10;99.90;;;;;;4759571;30;20179;-81
2021/04/22 12:00:47;;;;;;;11.80;5.63;;;9.80;99.90;;;;;;4772967;30;20183;-81
2021/04/22 12:03:16;;;;;;;12.13;6.03;;;9.50;99.90;;;;;;4757529;30;20219;-80
2021/04/22 12:05:42;;;;;;;13.23;5.27;;;9.40;99.90;;;;;;4757746;30;20183;-82
2021/04/22 12:08:10;;;;;;;14.07;5.27;;;9.50;99.90;;;;;;4758995;29;20644;-80
2021/04/22 12:10:46;;;;;;;9.97;5.70;;;9.50;99.90;;;;;;4759716;30;20234;-80
2021/04/22 12:13:15;;;;;;;8.63;5.40;;;9.40;99.90;;;;;;4761540;30;20194;-80
2021/04/22 12:15:47;;;;;;;8.70;4.97;;;9.50;99.90;;;;;;4759147;30;20188;-80
2021/04/22 12:18:42;;;;;;;11.83;6.10;;;9.60;99.90;;;;;;4762656;30;20197;-80
2021/04/22 12:21:18;;;;;;;15.27;6.23;;;9.70;99.90;;;;;;4764885;30;20226;-81
2021/04/22 12:23:56;;;;;;;12.33;5.27;;;9.60;99.90;;;;;;4762207;30;20257;-79
2021/04/22 12:26:25;;;;;;;11.73;5.90;;;9.50;99.90;;;;;;4765206;30;20198;-82
2021/04/22 12:28:53;;;;;;;12.27;6.10;;;9.50;99.90;;;;;;4765952;30;20178;-80
2021/04/22 12:31:27;;;;;;;11.90;6.30;;;9.40;99.90;;;;;;4767218;30;20189;-80
2021/04/22 12:33:56;;;;;;;10.70;6.47;;;9.20;99.90;;;;;;4762610;30;20217;-81
2021/04/22 12:36:22;;;;;;;10.70;7.67;;;9.10;99.90;;;;;;4761491;30;21412;-86
2021/04/22 12:38:48;;;;;;;12.93;7.67;;;9.10;99.90;;;;;;4757336;30;20209;-81
2021/04/22 12:41:16;;;;;;;12.47;6.27;;;9.10;99.90;;;;;;4755243;30;20207;-82